createdAt,value
2022-11-20T00:00:52.616Z,10.03
2022-11-20T00:03:41.423Z,11.47
2022-11-20T00:06:29.224Z,9.83
2022-11-20T00:09:16.543Z,11.97
2022-11-20T00:12:04.244Z,10.50
2022-11-20T00:14:51.492Z,11.10
2022-11-20T00:17:38.358Z,10.73
2022-11-20T00:20:26.873Z,10.57
2022-11-20T00:23:13.926Z,11.40
2022-11-20T00:26:03.741Z,10.93
2022-11-20T00:28:52.582Z,10.17
2022-11-20T00:31:39.475Z,10.90
2022-11-20T00:34:26.454Z,10.90
2022-11-20T00:37:15.006Z,10.57
2022-11-20T00:40:01.999Z,10.23
2022-11-20T00:42:49.004Z,10.03
2022-11-20T00:45:36.185Z,10.27
2022-11-20T00:48:23.104Z,10.53
2022-11-20T00:51:09.978Z,10.27
2022-11-20T00:54:00.863Z,10.50
2022-11-20T00:56:48.154Z,10.33
2022-11-20T00:59:35.236Z,11.47
2022-11-20T01:02:22.301Z,10.60
2022-11-20T01:05:09.719Z,11.67
2022-11-20T01:07:56.506Z,11.10
2022-11-20T01:10:44.805Z,10.97
2022-11-20T01:13:42.208Z,10.93
2022-11-20T01:16:30.764Z,11.00
2022-11-20T01:19:18.589Z,10.07
2022-11-20T01:22:05.391Z,9.97
2022-11-20T01:24:52.463Z,8.73
2022-11-20T01:27:40.417Z,9.33
2022-11-20T01:30:27.280Z,9.10
2022-11-20T01:33:14.490Z,9.40
2022-11-20T01:36:06.805Z,9.23
2022-11-20T01:38:53.994Z,9.43
2022-11-20T01:41:58.474Z,10.00
2022-11-20T01:44:52.208Z,9.70
2022-11-20T01:47:40.401Z,10.33
2022-11-20T01:50:29.766Z,9.10
2022-11-20T01:53:18.955Z,9.87
2022-11-20T01:56:08.521Z,10.20
2022-11-20T01:58:56.947Z,9.67
2022-11-20T02:01:45.379Z,7.90
2022-11-20T02:04:32.611Z,5.10
2022-11-20T02:07:19.695Z,3.20
2022-11-20T02:10:07.211Z,3.43
2022-11-20T02:13:12.153Z,3.20
2022-11-20T02:15:59.233Z,3.50
2022-11-20T02:18:47.984Z,3.40
2022-11-20T02:21:38.184Z,3.00
2022-11-20T02:24:26.482Z,3.47
2022-11-20T02:27:15.064Z,3.10
2022-11-20T02:30:03.873Z,3.13
2022-11-20T02:32:51.147Z,3.70
2022-11-20T02:35:45.765Z,3.37
2022-11-20T02:38:32.756Z,3.90
2022-11-20T02:41:21.172Z,3.33
2022-11-20T02:44:08.500Z,3.13
2022-11-20T02:46:55.891Z,3.57
2022-11-20T02:49:42.759Z,3.60
2022-11-20T02:52:30.209Z,3.80
2022-11-20T02:55:17.206Z,3.40
2022-11-20T02:58:05.541Z,3.67
2022-11-20T03:00:52.605Z,4.13
2022-11-20T03:03:39.511Z,3.43
2022-11-20T03:06:27.883Z,3.07
2022-11-20T03:09:15.020Z,3.27
2022-11-20T03:12:01.957Z,3.33
2022-11-20T03:14:53.049Z,3.03
2022-11-20T03:17:40.132Z,3.23
2022-11-20T03:20:27.155Z,3.43
2022-11-20T03:23:14.442Z,3.30
2022-11-20T03:26:15.164Z,3.20
2022-11-20T03:29:03.490Z,3.27
2022-11-20T03:31:51.927Z,3.47
2022-11-20T03:34:38.974Z,3.60
2022-11-20T03:37:26.208Z,3.60
2022-11-20T03:40:13.506Z,3.60
2022-11-20T03:43:00.525Z,3.27
2022-11-20T03:45:47.709Z,3.70
2022-11-20T03:48:36.128Z,3.47
2022-11-20T03:51:24.918Z,3.40
2022-11-20T03:54:12.065Z,3.57
2022-11-20T03:56:59.228Z,3.53
2022-11-20T03:59:45.981Z,3.63
2022-11-20T04:02:33.102Z,3.77
2022-11-20T04:05:21.488Z,4.17
2022-11-20T04:08:08.629Z,4.00
2022-11-20T04:10:55.689Z,3.63
2022-11-20T04:13:43.208Z,3.70
2022-11-20T04:16:31.961Z,4.10
2022-11-20T04:19:19.766Z,3.97
2022-11-20T04:22:08.488Z,4.20
2022-11-20T04:24:55.631Z,3.90
2022-11-20T04:27:42.901Z,4.00
2022-11-20T04:30:29.916Z,3.03
2022-11-20T04:33:17.019Z,4.07
2022-11-20T04:36:04.994Z,3.43
2022-11-20T04:38:57.156Z,3.93
2022-11-20T04:41:44.763Z,3.53
2022-11-20T04:44:31.734Z,3.80
2022-11-20T04:47:18.752Z,4.53
2022-11-20T04:50:06.360Z,3.87
2022-11-20T04:52:53.325Z,3.73
2022-11-20T04:55:41.690Z,3.83
2022-11-20T04:58:29.441Z,3.70
2022-11-20T05:01:17.770Z,3.80
2022-11-20T05:04:04.787Z,3.87
2022-11-20T05:06:52.587Z,3.70
2022-11-20T05:09:39.917Z,3.80
2022-11-20T05:12:29.645Z,3.60
2022-11-20T05:15:16.525Z,4.40
2022-11-20T05:18:03.445Z,3.30
2022-11-20T05:20:56.926Z,3.83
2022-11-20T05:23:44.431Z,3.30
2022-11-20T05:26:31.609Z,3.30
2022-11-20T05:29:19.951Z,3.60
2022-11-20T05:32:09.931Z,3.33
2022-11-20T05:34:57.129Z,4.00
2022-11-20T05:37:44.410Z,3.27
2022-11-20T05:40:31.487Z,3.77
2022-11-20T05:43:18.289Z,3.33
2022-11-20T05:46:07.364Z,3.83
2022-11-20T05:48:54.398Z,3.20
2022-11-20T05:51:41.395Z,3.00
2022-11-20T05:54:28.409Z,3.67
2022-11-20T05:57:15.505Z,3.30
2022-11-20T06:00:03.283Z,3.07
2022-11-20T06:02:52.639Z,3.23
2022-11-20T06:05:39.907Z,3.30
2022-11-20T06:08:26.978Z,3.40
2022-11-20T06:11:15.068Z,3.40
2022-11-20T06:14:02.200Z,3.07
2022-11-20T06:16:49.291Z,3.70
2022-11-20T06:19:37.352Z,3.23
2022-11-20T06:22:23.972Z,3.20
2022-11-20T06:25:11.473Z,3.07
2022-11-20T06:27:58.401Z,3.07
2022-11-20T06:30:48.004Z,2.97
2022-11-20T06:33:35.023Z,3.13
2022-11-20T06:36:24.810Z,2.93
2022-11-20T06:39:11.776Z,2.70
2022-11-20T06:41:59.393Z,3.20
2022-11-20T06:44:46.847Z,3.07
2022-11-20T06:47:34.294Z,2.87
2022-11-20T06:50:21.328Z,2.37
2022-11-20T06:53:09.446Z,2.90
2022-11-20T06:55:58.413Z,2.70
2022-11-20T06:58:45.524Z,2.87
2022-11-20T07:01:32.695Z,2.93
2022-11-20T07:04:20.112Z,2.47
2022-11-20T07:07:07.306Z,2.57
2022-11-20T07:09:55.542Z,6.00
2022-11-20T07:12:42.571Z,2.50
2022-11-20T07:15:29.680Z,2.90
2022-11-20T07:18:17.588Z,2.57
2022-11-20T07:21:06.086Z,2.87
2022-11-20T07:23:53.423Z,2.93
2022-11-20T07:26:41.330Z,2.70
2022-11-20T07:29:28.289Z,5.60
2022-11-20T07:32:15.035Z,5.77
2022-11-20T07:35:01.966Z,3.37
2022-11-20T07:37:49.597Z,2.80
2022-11-20T07:40:36.666Z,2.90
2022-11-20T07:43:25.254Z,2.63
2022-11-20T07:46:12.533Z,2.73
2022-11-20T07:48:59.519Z,2.60
2022-11-20T07:51:49.022Z,2.70
2022-11-20T07:54:39.106Z,2.80
2022-11-20T07:57:28.452Z,2.30
2022-11-20T08:00:17.968Z,2.60
2022-11-20T08:03:06.686Z,2.33
2022-11-20T08:05:53.728Z,2.83
2022-11-20T08:08:43.002Z,2.50
2022-11-20T08:11:47.705Z,2.10
2022-11-20T08:14:34.790Z,2.40
2022-11-20T08:17:23.713Z,2.50
2022-11-20T08:20:11.475Z,3.13
2022-11-20T08:23:02.266Z,2.50
2022-11-20T08:25:52.074Z,2.10
2022-11-20T08:28:39.045Z,2.13
2022-11-20T08:31:26.808Z,2.30
2022-11-20T08:34:19.011Z,2.00
2022-11-20T08:37:06.322Z,2.67
2022-11-20T08:39:54.530Z,2.23
2022-11-20T08:42:48.557Z,2.00
2022-11-20T08:45:35.825Z,2.13
2022-11-20T08:48:22.911Z,2.03
2022-11-20T08:51:11.321Z,2.03
2022-11-20T08:53:57.998Z,1.80
2022-11-20T08:56:44.862Z,1.90
2022-11-20T09:00:03.843Z,2.00
2022-11-20T09:02:39.914Z,1.53
2022-11-20T09:05:26.970Z,1.90
2022-11-20T09:08:15.620Z,1.60
2022-11-20T09:11:02.668Z,1.83
2022-11-20T09:13:50.121Z,1.63
2022-11-20T09:16:37.150Z,1.60
2022-11-20T09:19:39.515Z,1.50
2022-11-20T09:22:26.331Z,1.50
2022-11-20T09:25:14.813Z,2.00
2022-11-20T09:28:01.976Z,1.80
2022-11-20T09:30:48.774Z,1.37
2022-11-20T09:33:35.847Z,1.47
2022-11-20T09:36:23.230Z,1.60
2022-11-20T09:39:10.074Z,1.63
2022-11-20T09:42:06.334Z,1.60
2022-11-20T09:45:07.720Z,1.57
2022-11-20T09:48:16.043Z,1.60
2022-11-20T09:51:08.289Z,1.40
2022-11-20T09:54:00.952Z,1.50
2022-11-20T09:56:50.297Z,1.27
2022-11-20T09:59:41.609Z,1.23
2022-11-20T10:02:31.481Z,1.30
2022-11-20T10:05:21.277Z,1.27
2022-11-20T10:08:15.022Z,1.13
2022-11-20T10:11:07.337Z,1.20
2022-11-20T10:13:57.872Z,1.30
2022-11-20T10:16:50.823Z,1.30
2022-11-20T10:19:47.261Z,1.37
2022-11-20T10:22:43.485Z,1.20
2022-11-20T10:25:36.652Z,1.10
2022-11-20T10:28:31.499Z,1.40
2022-11-20T10:31:26.318Z,1.43
2022-11-20T10:34:22.654Z,1.30
2022-11-20T10:37:15.104Z,1.73
2022-11-20T10:40:03.873Z,1.37
2022-11-20T10:42:52.766Z,1.53
2022-11-20T10:45:43.073Z,1.30
2022-11-20T10:48:31.981Z,1.50
2022-11-20T10:51:27.939Z,1.47
2022-11-20T10:54:20.400Z,1.80
2022-11-20T10:57:13.110Z,1.60
2022-11-20T11:00:07.827Z,1.60
2022-11-20T11:02:55.945Z,1.60
2022-11-20T11:05:50.060Z,1.80
2022-11-20T11:08:40.323Z,1.90
2022-11-20T11:11:28.348Z,1.57
2022-11-20T11:14:16.933Z,1.33
2022-11-20T11:17:03.865Z,1.50
2022-11-20T11:19:59.616Z,2.00
2022-11-20T11:22:47.793Z,1.87
2022-11-20T11:25:37.109Z,2.13
2022-11-20T11:28:27.160Z,2.17
2022-11-20T11:31:24.644Z,2.07
2022-11-20T11:34:14.580Z,2.23
2022-11-20T11:37:01.856Z,2.00
2022-11-20T11:40:03.911Z,1.60
2022-11-20T11:43:00.245Z,1.83
2022-11-20T11:45:53.562Z,1.60
2022-11-20T11:48:40.318Z,1.67
2022-11-20T11:51:31.257Z,2.00
2022-11-20T11:54:21.209Z,2.03
2022-11-20T11:57:13.176Z,1.80
2022-11-20T12:00:05.293Z,1.50
2022-11-20T12:02:58.411Z,2.13
2022-11-20T12:05:47.322Z,2.00
2022-11-20T12:08:35.257Z,1.53
2022-11-20T12:11:25.971Z,2.00
2022-11-20T12:14:16.153Z,1.73
2022-11-20T12:17:04.707Z,1.73
2022-11-20T12:19:51.975Z,1.77
2022-11-20T12:22:44.190Z,1.60
2022-11-20T12:25:32.194Z,1.50
2022-11-20T12:28:39.033Z,1.50
2022-11-20T12:31:36.176Z,1.40
2022-11-20T12:34:44.111Z,1.40
2022-11-20T12:37:36.224Z,1.20
2022-11-20T12:40:30.475Z,1.60
2022-11-20T12:43:40.990Z,1.63
2022-11-20T12:46:38.590Z,0.97
2022-11-20T12:49:39.845Z,1.03
2022-11-20T12:52:48.606Z,1.27
2022-11-20T12:55:44.515Z,0.93
2022-11-20T12:58:42.355Z,0.83
2022-11-20T13:01:43.501Z,0.87
2022-11-20T13:04:47.801Z,1.10
2022-11-20T13:07:37.468Z,0.83
2022-11-20T13:10:35.374Z,0.90
2022-11-20T13:13:28.212Z,0.87
2022-11-20T13:16:21.951Z,0.93
2022-11-20T13:19:13.664Z,1.00
2022-11-20T13:22:00.893Z,1.20
2022-11-20T13:24:52.961Z,1.13
2022-11-20T13:27:49.398Z,1.30
2022-11-20T13:30:36.781Z,0.77
2022-11-20T13:33:26.218Z,1.03
2022-11-20T13:36:24.453Z,1.03
2022-11-20T13:39:11.242Z,0.87
2022-11-20T13:41:59.165Z,1.13
2022-11-20T13:44:52.714Z,0.93
2022-11-20T13:47:39.885Z,1.30
2022-11-20T13:50:42.528Z,1.30
2022-11-20T13:53:35.882Z,1.40
2022-11-20T13:56:26.478Z,1.23
2022-11-20T13:59:26.388Z,1.37
2022-11-20T14:02:17.041Z,1.60
2022-11-20T14:05:04.626Z,1.10
2022-11-20T14:07:52.956Z,1.33
2022-11-20T14:10:40.530Z,1.73
2022-11-20T14:13:27.633Z,1.47
2022-11-20T14:16:14.776Z,1.23
2022-11-20T14:19:22.646Z,1.40
2022-11-20T14:22:11.902Z,1.37
2022-11-20T14:25:07.443Z,2.10
2022-11-20T14:27:55.443Z,1.60
2022-11-20T14:30:47.209Z,1.50
2022-11-20T14:33:35.302Z,1.63
2022-11-20T14:36:25.274Z,1.70
2022-11-20T14:39:13.972Z,1.50
2022-11-20T14:42:01.135Z,1.60
2022-11-20T14:44:48.437Z,1.80
2022-11-20T14:47:35.599Z,1.93
2022-11-20T14:50:26.574Z,2.17
2022-11-20T14:53:24.741Z,1.70
2022-11-20T14:56:12.017Z,1.70
2022-11-20T14:58:59.618Z,2.00
2022-11-20T15:01:57.344Z,1.93
2022-11-20T15:04:48.170Z,2.03
2022-11-20T15:07:37.019Z,2.10
2022-11-20T15:10:29.578Z,2.80
2022-11-20T15:13:19.085Z,2.10
2022-11-20T15:16:07.067Z,2.20
2022-11-20T15:18:53.950Z,2.13
2022-11-20T15:21:41.189Z,1.90
2022-11-20T15:24:28.214Z,1.70
2022-11-20T15:27:16.499Z,2.20
2022-11-20T15:30:03.824Z,1.93
2022-11-20T15:32:51.187Z,2.20
2022-11-20T15:35:38.352Z,2.10
2022-11-20T15:38:25.357Z,36.40
2022-11-20T15:41:12.680Z,8.50
2022-11-20T15:44:00.881Z,1.80
2022-11-20T15:46:48.182Z,2.20
2022-11-20T15:49:35.498Z,2.23
2022-11-20T15:52:22.550Z,2.10
2022-11-20T15:55:10.704Z,2.70
2022-11-20T15:57:57.507Z,2.53
2022-11-20T16:00:46.398Z,2.53
2022-11-20T16:03:33.890Z,2.43
2022-11-20T16:06:21.096Z,2.30
2022-11-20T16:09:08.171Z,3.23
2022-11-20T16:11:55.012Z,2.33
2022-11-20T16:14:59.857Z,2.23
2022-11-20T16:17:48.370Z,2.30
2022-11-20T16:20:35.558Z,2.40
2022-11-20T16:23:23.009Z,2.10
2022-11-20T16:26:13.754Z,2.03
2022-11-20T16:29:01.550Z,2.50
2022-11-20T16:31:48.241Z,2.80
2022-11-20T16:34:36.414Z,2.73
2022-11-20T16:37:23.336Z,2.57
2022-11-20T16:40:10.683Z,2.87
2022-11-20T16:42:58.045Z,2.30
2022-11-20T16:45:45.794Z,3.07
2022-11-20T16:48:32.933Z,2.93
2022-11-20T16:51:21.334Z,2.93
2022-11-20T16:54:09.434Z,3.20
2022-11-20T16:56:56.302Z,3.13
2022-11-20T16:59:43.671Z,2.87
2022-11-20T17:02:30.650Z,2.70
2022-11-20T17:05:18.115Z,2.80
2022-11-20T17:08:07.214Z,2.43
2022-11-20T17:10:54.210Z,2.87
2022-11-20T17:13:41.616Z,3.17
2022-11-20T17:16:28.578Z,2.97
2022-11-20T17:19:16.095Z,2.80
2022-11-20T17:22:03.089Z,2.50
2022-11-20T17:24:51.698Z,2.47
2022-11-20T17:27:39.081Z,2.70
2022-11-20T17:30:26.219Z,3.20
2022-11-20T17:33:13.291Z,2.27
2022-11-20T17:36:00.553Z,2.50
2022-11-20T17:38:48.140Z,2.70
2022-11-20T17:41:36.616Z,2.90
2022-11-20T17:44:23.622Z,2.73
2022-11-20T17:47:11.153Z,2.40
2022-11-20T17:49:58.592Z,2.70
2022-11-20T17:52:45.721Z,3.40
2022-11-20T17:55:55.696Z,2.80
2022-11-20T17:58:43.790Z,2.97
2022-11-20T18:01:30.997Z,2.63
2022-11-20T18:04:18.280Z,2.90
2022-11-20T18:07:05.321Z,2.30
2022-11-20T18:09:52.238Z,3.53
2022-11-20T18:12:39.491Z,3.30
2022-11-20T18:15:27.903Z,2.50
2022-11-20T18:18:14.801Z,2.70
2022-11-20T18:21:02.119Z,2.60
2022-11-20T18:23:49.366Z,2.60
2022-11-20T18:26:40.027Z,2.43
2022-11-20T18:29:32.125Z,2.60
2022-11-20T18:32:21.541Z,2.33
2022-11-20T18:35:09.263Z,2.30
2022-11-20T18:37:56.391Z,2.30
2022-11-20T18:40:43.627Z,2.30
2022-11-20T18:43:48.321Z,2.30
2022-11-20T18:46:35.641Z,2.20
2022-11-20T18:49:25.648Z,2.50
2022-11-20T18:52:13.373Z,2.33
2022-11-20T18:55:00.417Z,2.63
2022-11-20T18:57:47.903Z,2.50
2022-11-20T19:00:35.730Z,2.30
2022-11-20T19:03:24.565Z,2.40
2022-11-20T19:06:18.306Z,2.70
2022-11-20T19:09:09.017Z,2.07
2022-11-20T19:11:56.258Z,3.00
2022-11-20T19:14:45.615Z,2.43
2022-11-20T19:17:38.056Z,2.30
2022-11-20T19:20:33.995Z,2.17
2022-11-20T19:23:25.326Z,2.87
2022-11-20T19:26:12.174Z,1.87
2022-11-20T19:28:59.930Z,1.73
2022-11-20T19:31:47.526Z,1.97
2022-11-20T19:34:34.752Z,2.40
2022-11-20T19:37:21.585Z,1.80
2022-11-20T19:40:10.678Z,1.70
2022-11-20T19:42:57.822Z,1.80
2022-11-20T19:45:44.972Z,1.80
2022-11-20T19:48:32.526Z,2.00
2022-11-20T19:51:21.130Z,2.10
2022-11-20T19:54:08.370Z,1.50
2022-11-20T19:56:57.304Z,1.67
2022-11-20T19:59:44.704Z,1.47
2022-11-20T20:02:32.446Z,1.80
2022-11-20T20:05:19.361Z,1.57
2022-11-20T20:08:06.610Z,2.17
2022-11-20T20:10:59.201Z,1.10
2022-11-20T20:13:48.944Z,1.13
2022-11-20T20:16:36.793Z,1.30
2022-11-20T20:19:24.108Z,1.40
2022-11-20T20:22:11.615Z,1.30
2022-11-20T20:24:58.566Z,1.30
2022-11-20T20:27:45.933Z,1.33
2022-11-20T20:30:34.182Z,1.40
2022-11-20T20:33:21.596Z,1.40
2022-11-20T20:36:09.393Z,1.70
2022-11-20T20:38:56.559Z,1.40
2022-11-20T20:41:43.765Z,1.23
2022-11-20T20:44:48.524Z,1.40
2022-11-20T20:47:37.775Z,1.43
2022-11-20T20:50:25.142Z,1.40
2022-11-20T20:53:12.283Z,1.60
2022-11-20T20:56:00.201Z,1.40
2022-11-20T20:58:47.177Z,1.40
2022-11-20T21:01:34.516Z,1.40
2022-11-20T21:04:23.263Z,1.60
2022-11-20T21:07:10.914Z,1.50
2022-11-20T21:09:58.263Z,1.53
2022-11-20T21:12:45.360Z,1.30
2022-11-20T21:15:32.477Z,1.60
2022-11-20T21:18:20.427Z,1.37
2022-11-20T21:21:27.205Z,1.33
2022-11-20T21:24:14.216Z,1.30
2022-11-20T21:27:02.654Z,1.20
2022-11-20T21:29:50.013Z,1.37
2022-11-20T21:32:37.577Z,1.40
2022-11-20T21:35:24.773Z,1.50
2022-11-20T21:38:13.387Z,1.57
2022-11-20T21:41:01.516Z,1.43
2022-11-20T21:44:03.808Z,1.10
2022-11-20T21:46:55.536Z,1.20
2022-11-20T21:49:42.644Z,1.73
2022-11-20T21:52:29.843Z,1.23
2022-11-20T21:55:17.922Z,1.47
2022-11-20T21:58:05.041Z,1.30
2022-11-20T22:00:52.022Z,1.20
2022-11-20T22:03:39.374Z,1.30
2022-11-20T22:06:27.131Z,1.20
2022-11-20T22:09:14.215Z,1.23
2022-11-20T22:12:02.764Z,1.23
2022-11-20T22:14:48.959Z,1.40
2022-11-20T22:18:05.271Z,1.57
2022-11-20T22:20:52.324Z,1.40
2022-11-20T22:23:59.151Z,1.40
2022-11-20T22:26:46.405Z,1.77
2022-11-20T22:29:34.793Z,1.50
2022-11-20T22:32:21.850Z,1.57
2022-11-20T22:35:09.239Z,1.50
2022-11-20T22:37:56.253Z,1.30
2022-11-20T22:40:43.898Z,1.47
2022-11-20T22:43:31.115Z,1.40
2022-11-20T22:46:20.322Z,1.43
2022-11-20T22:49:09.519Z,1.20
2022-11-20T22:51:56.488Z,1.60
2022-11-20T22:54:43.794Z,1.70
2022-11-20T22:57:31.231Z,1.30
2022-11-20T23:00:18.902Z,1.30
2022-11-20T23:03:06.971Z,1.30
2022-11-20T23:05:54.141Z,1.60
2022-11-20T23:08:41.754Z,1.63
2022-11-20T23:11:29.830Z,1.60
2022-11-20T23:14:17.260Z,1.40
2022-11-20T23:17:04.522Z,1.30
2022-11-20T23:19:52.574Z,1.57
2022-11-20T23:22:42.362Z,1.20
2022-11-20T23:25:32.246Z,1.10
2022-11-20T23:28:19.778Z,1.30
2022-11-20T23:31:16.680Z,1.37
2022-11-20T23:34:08.907Z,1.20
2022-11-20T23:36:57.838Z,1.20
2022-11-20T23:39:46.503Z,1.30
2022-11-20T23:42:34.013Z,1.20
2022-11-20T23:45:20.987Z,1.20
2022-11-20T23:48:08.271Z,1.20
2022-11-20T23:50:55.494Z,1.30
2022-11-20T23:53:43.932Z,1.23
2022-11-20T23:56:30.777Z,1.40
2022-11-20T23:59:18.033Z,1.30
